sensor_id;sensor_type;location;lat;lon;timestamp;P1;durP1;ratioP1;P2;durP2;ratioP2
22030;SDS011;11179;52.106;21.024;2022-08-11T00:02:05;10.47;;;3.83;;
22030;SDS011;11179;52.106;21.024;2022-08-11T00:04:34;9.73;;;4.60;;
22030;SDS011;11179;52.106;21.024;2022-08-11T00:07:01;9.37;;;4.20;;
22030;SDS011;11179;52.106;21.024;2022-08-11T00:09:32;11.30;;;4.50;;
22030;SDS011;11179;52.106;21.024;2022-08-11T00:12:00;11.73;;;4.50;;
22030;SDS011;11179;52.106;21.024;2022-08-11T00:14:28;15.30;;;4.53;;
22030;SDS011;11179;52.106;21.024;2022-08-11T00:16:56;14.90;;;5.57;;
22030;SDS011;11179;52.106;21.024;2022-08-11T00:19:25;14.37;;;4.73;;
22030;SDS011;11179;52.106;21.024;2022-08-11T00:21:52;30.23;;;6.10;;
22030;SDS011;11179;52.106;21.024;2022-08-11T00:24:19;19.63;;;5.20;;
22030;SDS011;11179;52.106;21.024;2022-08-11T00:26:50;15.83;;;5.23;;
22030;SDS011;11179;52.106;21.024;2022-08-11T00:29:17;11.40;;;4.87;;
22030;SDS011;11179;52.106;21.024;2022-08-11T00:31:53;23.30;;;6.53;;
22030;SDS011;11179;52.106;21.024;2022-08-11T00:34:21;12.87;;;4.97;;
22030;SDS011;11179;52.106;21.024;2022-08-11T00:39:21;12.10;;;4.27;;
22030;SDS011;11179;52.106;21.024;2022-08-11T00:52:50;13.97;;;4.57;;
22030;SDS011;11179;52.106;21.024;2022-08-11T00:55:35;10.60;;;4.90;;
22030;SDS011;11179;52.106;21.024;2022-08-11T01:06:45;11.77;;;4.57;;
22030;SDS011;11179;52.106;21.024;2022-08-11T01:18:30;14.43;;;3.80;;
22030;SDS011;11179;52.106;21.024;2022-08-11T01:21:13;13.23;;;4.53;;
22030;SDS011;11179;52.106;21.024;2022-08-11T01:40:37;10.17;;;3.90;;
22030;SDS011;11179;52.106;21.024;2022-08-11T01:46:14;18.90;;;5.07;;
22030;SDS011;11179;52.106;21.024;2022-08-11T01:54:05;12.13;;;5.77;;
22030;SDS011;11179;52.106;21.024;2022-08-11T01:59:18;10.00;;;4.60;;
22030;SDS011;11179;52.106;21.024;2022-08-11T02:10:25;10.03;;;4.50;;
22030;SDS011;11179;52.106;21.024;2022-08-11T02:13:15;13.20;;;4.73;;
22030;SDS011;11179;52.106;21.024;2022-08-11T02:15:45;12.00;;;4.33;;
22030;SDS011;11179;52.106;21.024;2022-08-11T02:18:20;9.80;;;4.20;;
22030;SDS011;11179;52.106;21.024;2022-08-11T02:21:12;10.47;;;4.27;;
22030;SDS011;11179;52.106;21.024;2022-08-11T02:24:03;22.77;;;5.33;;
22030;SDS011;11179;52.106;21.024;2022-08-11T02:26:39;34.17;;;7.70;;
22030;SDS011;11179;52.106;21.024;2022-08-11T02:50:50;13.60;;;5.27;;
22030;SDS011;11179;52.106;21.024;2022-08-11T02:59:12;8.73;;;4.20;;
22030;SDS011;11179;52.106;21.024;2022-08-11T03:01:58;13.60;;;4.40;;
22030;SDS011;11179;52.106;21.024;2022-08-11T03:04:36;12.30;;;4.67;;
22030;SDS011;11179;52.106;21.024;2022-08-11T03:07:28;9.63;;;4.40;;
22030;SDS011;11179;52.106;21.024;2022-08-11T03:10:05;18.77;;;4.73;;
22030;SDS011;11179;52.106;21.024;2022-08-11T03:12:48;14.80;;;6.83;;
22030;SDS011;11179;52.106;21.024;2022-08-11T03:19:00;11.37;;;4.83;;
22030;SDS011;11179;52.106;21.024;2022-08-11T03:24:48;11.60;;;4.40;;
22030;SDS011;11179;52.106;21.024;2022-08-11T03:32:27;12.17;;;4.70;;
22030;SDS011;11179;52.106;21.024;2022-08-11T03:34:57;9.90;;;4.37;;
22030;SDS011;11179;52.106;21.024;2022-08-11T03:49:20;12.80;;;4.13;;
22030;SDS011;11179;52.106;21.024;2022-08-11T03:52:04;15.80;;;4.33;;
22030;SDS011;11179;52.106;21.024;2022-08-11T04:31:32;9.90;;;3.33;;
22030;SDS011;11179;52.106;21.024;2022-08-11T04:58:31;11.13;;;4.30;;
22030;SDS011;11179;52.106;21.024;2022-08-11T05:10:37;12.73;;;3.47;;
22030;SDS011;11179;52.106;21.024;2022-08-11T05:13:28;10.10;;;3.60;;
22030;SDS011;11179;52.106;21.024;2022-08-11T05:16:17;9.00;;;3.63;;
22030;SDS011;11179;52.106;21.024;2022-08-11T05:19:06;8.83;;;3.47;;
22030;SDS011;11179;52.106;21.024;2022-08-11T05:21:52;9.17;;;3.40;;
22030;SDS011;11179;52.106;21.024;2022-08-11T05:24:51;8.50;;;3.40;;
22030;SDS011;11179;52.106;21.024;2022-08-11T05:28:04;6.83;;;3.53;;
22030;SDS011;11179;52.106;21.024;2022-08-11T05:30:57;7.87;;;3.43;;
22030;SDS011;11179;52.106;21.024;2022-08-11T05:33:50;7.43;;;3.10;;
22030;SDS011;11179;52.106;21.024;2022-08-11T05:39:27;6.37;;;3.07;;
22030;SDS011;11179;52.106;21.024;2022-08-11T05:42:15;11.13;;;3.10;;
22030;SDS011;11179;52.106;21.024;2022-08-11T05:45:03;6.53;;;3.83;;
22030;SDS011;11179;52.106;21.024;2022-08-11T05:47:54;7.17;;;2.83;;
22030;SDS011;11179;52.106;21.024;2022-08-11T05:50:38;5.90;;;3.13;;
22030;SDS011;11179;52.106;21.024;2022-08-11T05:53:23;5.57;;;2.50;;
22030;SDS011;11179;52.106;21.024;2022-08-11T05:56:07;8.50;;;2.80;;
22030;SDS011;11179;52.106;21.024;2022-08-11T05:58:48;9.93;;;2.80;;
22030;SDS011;11179;52.106;21.024;2022-08-11T06:01:26;10.30;;;3.03;;
22030;SDS011;11179;52.106;21.024;2022-08-11T06:03:55;6.43;;;2.70;;
22030;SDS011;11179;52.106;21.024;2022-08-11T06:06:56;5.73;;;2.60;;
22030;SDS011;11179;52.106;21.024;2022-08-11T06:11:59;6.60;;;2.33;;
22030;SDS011;11179;52.106;21.024;2022-08-11T06:14:27;6.50;;;2.23;;
22030;SDS011;11179;52.106;21.024;2022-08-11T06:16:57;6.13;;;2.20;;
22030;SDS011;11179;52.106;21.024;2022-08-11T06:19:40;5.17;;;2.07;;
22030;SDS011;11179;52.106;21.024;2022-08-11T06:22:09;6.60;;;2.57;;
22030;SDS011;11179;52.106;21.024;2022-08-11T06:24:36;7.87;;;2.90;;
22030;SDS011;11179;52.106;21.024;2022-08-11T06:27:05;6.40;;;2.30;;
22030;SDS011;11179;52.106;21.024;2022-08-11T06:29:32;5.53;;;2.10;;
22030;SDS011;11179;52.106;21.024;2022-08-11T06:32:05;10.90;;;2.50;;
22030;SDS011;11179;52.106;21.024;2022-08-11T06:35:18;6.73;;;2.23;;
22030;SDS011;11179;52.106;21.024;2022-08-11T06:40:51;5.60;;;2.40;;
22030;SDS011;11179;52.106;21.024;2022-08-11T06:46:40;13.30;;;2.87;;
22030;SDS011;11179;52.106;21.024;2022-08-11T06:49:15;6.30;;;2.20;;
22030;SDS011;11179;52.106;21.024;2022-08-11T06:52:03;6.43;;;2.43;;
22030;SDS011;11179;52.106;21.024;2022-08-11T06:54:39;4.53;;;2.20;;
22030;SDS011;11179;52.106;21.024;2022-08-11T06:57:11;7.30;;;2.07;;
22030;SDS011;11179;52.106;21.024;2022-08-11T06:59:56;5.63;;;1.93;;
22030;SDS011;11179;52.106;21.024;2022-08-11T07:02:48;4.60;;;1.90;;
22030;SDS011;11179;52.106;21.024;2022-08-11T07:05:26;6.43;;;2.90;;
22030;SDS011;11179;52.106;21.024;2022-08-11T07:14:31;8.60;;;1.90;;
22030;SDS011;11179;52.106;21.024;2022-08-11T07:17:21;4.77;;;2.07;;
22030;SDS011;11179;52.106;21.024;2022-08-11T07:19:57;10.70;;;2.13;;
22030;SDS011;11179;52.106;21.024;2022-08-11T07:22:48;6.20;;;1.80;;
22030;SDS011;11179;52.106;21.024;2022-08-11T07:25:38;6.93;;;2.20;;
22030;SDS011;11179;52.106;21.024;2022-08-11T07:28:26;6.50;;;2.10;;
22030;SDS011;11179;52.106;21.024;2022-08-11T07:31:21;16.03;;;2.10;;
22030;SDS011;11179;52.106;21.024;2022-08-11T07:34:35;6.70;;;1.80;;
22030;SDS011;11179;52.106;21.024;2022-08-11T07:36:54;5.63;;;1.50;;
22030;SDS011;11179;52.106;21.024;2022-08-11T07:39:27;10.10;;;1.70;;
22030;SDS011;11179;52.106;21.024;2022-08-11T07:41:57;4.60;;;1.87;;
22030;SDS011;11179;52.106;21.024;2022-08-11T07:44:24;7.70;;;1.80;;
22030;SDS011;11179;52.106;21.024;2022-08-11T07:46:53;4.27;;;1.60;;
22030;SDS011;11179;52.106;21.024;2022-08-11T07:49:39;4.90;;;1.77;;
22030;SDS011;11179;52.106;21.024;2022-08-11T07:52:28;4.83;;;1.60;;
22030;SDS011;11179;52.106;21.024;2022-08-11T07:55:12;6.20;;;2.00;;
22030;SDS011;11179;52.106;21.024;2022-08-11T07:57:43;4.13;;;1.60;;
22030;SDS011;11179;52.106;21.024;2022-08-11T08:00:28;4.50;;;1.50;;
22030;SDS011;11179;52.106;21.024;2022-08-11T08:03:12;4.77;;;2.07;;
22030;SDS011;11179;52.106;21.024;2022-08-11T08:05:56;5.60;;;1.60;;
22030;SDS011;11179;52.106;21.024;2022-08-11T08:08:41;3.37;;;1.27;;
22030;SDS011;11179;52.106;21.024;2022-08-11T08:11:25;5.93;;;1.50;;
22030;SDS011;11179;52.106;21.024;2022-08-11T08:14:10;6.13;;;1.63;;
22030;SDS011;11179;52.106;21.024;2022-08-11T08:16:54;4.97;;;1.70;;
22030;SDS011;11179;52.106;21.024;2022-08-11T08:19:41;4.60;;;1.60;;
22030;SDS011;11179;52.106;21.024;2022-08-11T08:22:09;3.60;;;1.50;;
22030;SDS011;11179;52.106;21.024;2022-08-11T08:24:35;12.43;;;1.80;;
22030;SDS011;11179;52.106;21.024;2022-08-11T08:27:03;4.60;;;1.70;;
22030;SDS011;11179;52.106;21.024;2022-08-11T08:29:33;6.90;;;1.37;;
22030;SDS011;11179;52.106;21.024;2022-08-11T08:32:19;4.17;;;1.80;;
22030;SDS011;11179;52.106;21.024;2022-08-11T08:34:45;3.90;;;1.20;;
22030;SDS011;11179;52.106;21.024;2022-08-11T08:37:14;5.93;;;1.63;;
22030;SDS011;11179;52.106;21.024;2022-08-11T08:39:44;4.30;;;1.40;;
22030;SDS011;11179;52.106;21.024;2022-08-11T08:42:11;9.47;;;1.73;;
22030;SDS011;11179;52.106;21.024;2022-08-11T08:44:42;4.10;;;1.60;;
22030;SDS011;11179;52.106;21.024;2022-08-11T08:47:14;4.73;;;1.50;;
22030;SDS011;11179;52.106;21.024;2022-08-11T08:49:48;9.30;;;1.80;;
22030;SDS011;11179;52.106;21.024;2022-08-11T08:52:17;3.40;;;1.50;;
22030;SDS011;11179;52.106;21.024;2022-08-11T08:54:47;4.23;;;1.40;;
22030;SDS011;11179;52.106;21.024;2022-08-11T08:57:18;4.10;;;1.33;;
22030;SDS011;11179;52.106;21.024;2022-08-11T08:59:47;3.73;;;1.50;;
22030;SDS011;11179;52.106;21.024;2022-08-11T09:02:14;5.13;;;1.80;;
22030;SDS011;11179;52.106;21.024;2022-08-11T09:04:42;12.00;;;1.70;;
22030;SDS011;11179;52.106;21.024;2022-08-11T09:07:10;3.70;;;1.10;;
22030;SDS011;11179;52.106;21.024;2022-08-11T09:09:46;7.50;;;1.60;;
22030;SDS011;11179;52.106;21.024;2022-08-11T09:12:13;5.70;;;1.50;;
22030;SDS011;11179;52.106;21.024;2022-08-11T09:14:42;3.27;;;1.10;;
22030;SDS011;11179;52.106;21.024;2022-08-11T09:17:24;6.37;;;1.20;;
22030;SDS011;11179;52.106;21.024;2022-08-11T09:19:53;4.73;;;1.40;;
22030;SDS011;11179;52.106;21.024;2022-08-11T09:22:23;3.37;;;1.17;;
22030;SDS011;11179;52.106;21.024;2022-08-11T09:25:10;3.30;;;1.30;;
22030;SDS011;11179;52.106;21.024;2022-08-11T09:27:55;4.30;;;1.30;;
22030;SDS011;11179;52.106;21.024;2022-08-11T09:30:22;4.43;;;1.13;;
22030;SDS011;11179;52.106;21.024;2022-08-11T09:32:56;3.10;;;1.40;;
22030;SDS011;11179;52.106;21.024;2022-08-11T09:35:27;3.43;;;1.30;;
22030;SDS011;11179;52.106;21.024;2022-08-11T09:37:54;4.07;;;1.47;;
22030;SDS011;11179;52.106;21.024;2022-08-11T09:40:40;4.40;;;1.30;;
22030;SDS011;11179;52.106;21.024;2022-08-11T09:43:09;6.93;;;1.90;;
22030;SDS011;11179;52.106;21.024;2022-08-11T09:45:54;4.17;;;1.60;;
22030;SDS011;11179;52.106;21.024;2022-08-11T09:48:23;4.73;;;1.50;;
22030;SDS011;11179;52.106;21.024;2022-08-11T09:50:52;3.83;;;1.23;;
22030;SDS011;11179;52.106;21.024;2022-08-11T09:53:20;5.40;;;1.50;;
22030;SDS011;11179;52.106;21.024;2022-08-11T09:55:46;6.10;;;1.57;;
22030;SDS011;11179;52.106;21.024;2022-08-11T09:58:13;3.27;;;1.37;;
22030;SDS011;11179;52.106;21.024;2022-08-11T10:00:43;4.80;;;1.50;;
22030;SDS011;11179;52.106;21.024;2022-08-11T10:03:13;4.50;;;1.50;;
22030;SDS011;11179;52.106;21.024;2022-08-11T10:05:44;3.13;;;1.13;;
22030;SDS011;11179;52.106;21.024;2022-08-11T10:08:30;3.93;;;1.27;;
22030;SDS011;11179;52.106;21.024;2022-08-11T10:10:58;4.93;;;1.57;;
22030;SDS011;11179;52.106;21.024;2022-08-11T10:13:31;3.47;;;1.37;;
22030;SDS011;11179;52.106;21.024;2022-08-11T10:16:18;4.67;;;1.60;;
22030;SDS011;11179;52.106;21.024;2022-08-11T10:18:48;4.83;;;1.63;;
22030;SDS011;11179;52.106;21.024;2022-08-11T10:21:25;4.40;;;1.30;;
22030;SDS011;11179;52.106;21.024;2022-08-11T10:23:55;6.77;;;1.60;;
22030;SDS011;11179;52.106;21.024;2022-08-11T10:26:41;4.30;;;1.43;;
22030;SDS011;11179;52.106;21.024;2022-08-11T10:29:26;5.80;;;1.43;;
22030;SDS011;11179;52.106;21.024;2022-08-11T10:32:18;3.53;;;1.30;;
22030;SDS011;11179;52.106;21.024;2022-08-11T10:35:13;3.20;;;1.40;;
22030;SDS011;11179;52.106;21.024;2022-08-11T10:37:40;12.03;;;1.90;;
22030;SDS011;11179;52.106;21.024;2022-08-11T10:40:07;7.20;;;1.70;;
22030;SDS011;11179;52.106;21.024;2022-08-11T10:42:37;4.50;;;1.40;;
22030;SDS011;11179;52.106;21.024;2022-08-11T10:45:22;3.60;;;1.53;;
22030;SDS011;11179;52.106;21.024;2022-08-11T10:48:07;5.50;;;1.30;;
22030;SDS011;11179;52.106;21.024;2022-08-11T10:50:34;7.53;;;1.80;;
22030;SDS011;11179;52.106;21.024;2022-08-11T10:53:19;3.60;;;1.50;;
22030;SDS011;11179;52.106;21.024;2022-08-11T10:56:04;3.67;;;1.43;;
22030;SDS011;11179;52.106;21.024;2022-08-11T10:58:49;4.77;;;1.77;;
22030;SDS011;11179;52.106;21.024;2022-08-11T11:03:46;8.90;;;3.00;;
22030;SDS011;11179;52.106;21.024;2022-08-11T11:08:58;3.87;;;1.60;;
22030;SDS011;11179;52.106;21.024;2022-08-11T11:11:25;5.00;;;1.70;;
22030;SDS011;11179;52.106;21.024;2022-08-11T11:14:29;5.73;;;1.83;;
22030;SDS011;11179;52.106;21.024;2022-08-11T11:17:17;4.50;;;1.50;;
22030;SDS011;11179;52.106;21.024;2022-08-11T11:20:09;7.00;;;1.50;;
22030;SDS011;11179;52.106;21.024;2022-08-11T11:22:41;4.40;;;1.43;;
22030;SDS011;11179;52.106;21.024;2022-08-11T11:37:04;5.33;;;2.10;;
22030;SDS011;11179;52.106;21.024;2022-08-11T11:39:31;6.37;;;1.90;;
22030;SDS011;11179;52.106;21.024;2022-08-11T11:41:58;6.50;;;1.40;;
22030;SDS011;11179;52.106;21.024;2022-08-11T11:44:27;3.80;;;1.50;;
22030;SDS011;11179;52.106;21.024;2022-08-11T11:46:54;5.57;;;1.80;;
22030;SDS011;11179;52.106;21.024;2022-08-11T11:49:22;4.40;;;1.70;;
22030;SDS011;11179;52.106;21.024;2022-08-11T11:51:51;3.60;;;1.40;;
22030;SDS011;11179;52.106;21.024;2022-08-11T11:54:19;9.90;;;1.57;;
22030;SDS011;11179;52.106;21.024;2022-08-11T11:56:47;6.10;;;1.50;;
22030;SDS011;11179;52.106;21.024;2022-08-11T11:59:17;8.93;;;1.60;;
22030;SDS011;11179;52.106;21.024;2022-08-11T12:02:06;4.87;;;1.43;;
22030;SDS011;11179;52.106;21.024;2022-08-11T12:04:32;3.63;;;1.37;;
22030;SDS011;11179;52.106;21.024;2022-08-11T12:07:01;4.30;;;1.87;;
22030;SDS011;11179;52.106;21.024;2022-08-11T12:09:45;3.30;;;1.40;;
22030;SDS011;11179;52.106;21.024;2022-08-11T12:12:12;3.50;;;1.40;;
22030;SDS011;11179;52.106;21.024;2022-08-11T12:14:56;8.40;;;1.63;;
22030;SDS011;11179;52.106;21.024;2022-08-11T12:17:22;4.27;;;1.50;;
22030;SDS011;11179;52.106;21.024;2022-08-11T12:19:48;7.40;;;1.30;;
22030;SDS011;11179;52.106;21.024;2022-08-11T12:22:16;3.97;;;1.63;;
22030;SDS011;11179;52.106;21.024;2022-08-11T12:25:01;7.37;;;1.67;;
22030;SDS011;11179;52.106;21.024;2022-08-11T12:27:45;4.40;;;1.60;;
22030;SDS011;11179;52.106;21.024;2022-08-11T12:30:11;4.83;;;1.40;;
22030;SDS011;11179;52.106;21.024;2022-08-11T12:32:37;3.87;;;1.30;;
22030;SDS011;11179;52.106;21.024;2022-08-11T12:35:04;3.50;;;1.70;;
22030;SDS011;11179;52.106;21.024;2022-08-11T12:37:32;5.53;;;1.43;;
22030;SDS011;11179;52.106;21.024;2022-08-11T12:40:02;6.30;;;1.40;;
22030;SDS011;11179;52.106;21.024;2022-08-11T12:42:50;3.30;;;1.30;;
22030;SDS011;11179;52.106;21.024;2022-08-11T12:45:35;3.90;;;1.23;;
22030;SDS011;11179;52.106;21.024;2022-08-11T12:48:06;3.90;;;1.30;;
22030;SDS011;11179;52.106;21.024;2022-08-11T12:50:54;7.10;;;1.53;;
22030;SDS011;11179;52.106;21.024;2022-08-11T12:53:45;15.73;;;1.53;;
22030;SDS011;11179;52.106;21.024;2022-08-11T12:56:19;4.33;;;1.40;;
22030;SDS011;11179;52.106;21.024;2022-08-11T12:59:05;4.13;;;1.57;;
22030;SDS011;11179;52.106;21.024;2022-08-11T13:01:50;4.93;;;1.57;;
22030;SDS011;11179;52.106;21.024;2022-08-11T13:04:35;3.57;;;1.40;;
22030;SDS011;11179;52.106;21.024;2022-08-11T13:07:15;4.77;;;1.60;;
22030;SDS011;11179;52.106;21.024;2022-08-11T13:09:42;4.97;;;2.70;;
22030;SDS011;11179;52.106;21.024;2022-08-11T13:12:08;11.03;;;2.10;;
22030;SDS011;11179;52.106;21.024;2022-08-11T13:14:53;9.90;;;1.87;;
22030;SDS011;11179;52.106;21.024;2022-08-11T13:17:19;11.10;;;1.93;;
22030;SDS011;11179;52.106;21.024;2022-08-11T13:19:45;7.13;;;1.50;;
22030;SDS011;11179;52.106;21.024;2022-08-11T13:22:12;8.27;;;2.03;;
22030;SDS011;11179;52.106;21.024;2022-08-11T13:24:40;5.43;;;1.70;;
22030;SDS011;11179;52.106;21.024;2022-08-11T13:27:05;4.47;;;1.70;;
22030;SDS011;11179;52.106;21.024;2022-08-11T13:29:31;6.63;;;1.90;;
22030;SDS011;11179;52.106;21.024;2022-08-11T13:31:59;5.73;;;1.70;;
22030;SDS011;11179;52.106;21.024;2022-08-11T13:34:26;4.20;;;1.80;;
22030;SDS011;11179;52.106;21.024;2022-08-11T13:36:56;5.50;;;1.80;;
22030;SDS011;11179;52.106;21.024;2022-08-11T13:39:25;3.90;;;1.57;;
22030;SDS011;11179;52.106;21.024;2022-08-11T13:41:53;5.37;;;2.30;;
22030;SDS011;11179;52.106;21.024;2022-08-11T13:44:21;18.50;;;7.40;;
22030;SDS011;11179;52.106;21.024;2022-08-11T13:46:48;24.93;;;9.03;;
22030;SDS011;11179;52.106;21.024;2022-08-11T13:49:15;11.87;;;3.83;;
22030;SDS011;11179;52.106;21.024;2022-08-11T13:51:42;13.20;;;2.10;;
22030;SDS011;11179;52.106;21.024;2022-08-11T13:54:15;4.77;;;1.80;;
22030;SDS011;11179;52.106;21.024;2022-08-11T13:56:44;3.73;;;1.50;;
22030;SDS011;11179;52.106;21.024;2022-08-11T13:59:12;6.50;;;1.80;;
22030;SDS011;11179;52.106;21.024;2022-08-11T14:01:40;8.70;;;1.80;;
22030;SDS011;11179;52.106;21.024;2022-08-11T14:04:09;4.80;;;1.47;;
22030;SDS011;11179;52.106;21.024;2022-08-11T14:06:39;5.50;;;2.10;;
22030;SDS011;11179;52.106;21.024;2022-08-11T14:09:08;3.73;;;1.30;;
22030;SDS011;11179;52.106;21.024;2022-08-11T14:11:36;9.43;;;1.60;;
22030;SDS011;11179;52.106;21.024;2022-08-11T14:14:24;4.43;;;1.50;;
22030;SDS011;11179;52.106;21.024;2022-08-11T14:16:52;6.20;;;1.60;;
22030;SDS011;11179;52.106;21.024;2022-08-11T14:19:21;4.00;;;1.40;;
22030;SDS011;11179;52.106;21.024;2022-08-11T14:21:49;7.80;;;1.70;;
22030;SDS011;11179;52.106;21.024;2022-08-11T14:24:31;5.10;;;1.50;;
22030;SDS011;11179;52.106;21.024;2022-08-11T14:26:59;4.83;;;1.60;;
22030;SDS011;11179;52.106;21.024;2022-08-11T14:29:25;13.97;;;1.80;;
22030;SDS011;11179;52.106;21.024;2022-08-11T14:31:53;9.90;;;1.90;;
22030;SDS011;11179;52.106;21.024;2022-08-11T14:34:21;5.10;;;1.83;;
22030;SDS011;11179;52.106;21.024;2022-08-11T14:36:55;10.50;;;1.73;;
22030;SDS011;11179;52.106;21.024;2022-08-11T14:39:26;5.33;;;1.50;;
22030;SDS011;11179;52.106;21.024;2022-08-11T14:41:57;22.43;;;2.60;;
22030;SDS011;11179;52.106;21.024;2022-08-11T14:44:45;11.20;;;2.33;;
22030;SDS011;11179;52.106;21.024;2022-08-11T14:47:32;7.57;;;2.00;;
22030;SDS011;11179;52.106;21.024;2022-08-11T14:50:00;4.80;;;1.93;;
22030;SDS011;11179;52.106;21.024;2022-08-11T14:52:27;5.63;;;1.93;;
22030;SDS011;11179;52.106;21.024;2022-08-11T14:54:56;6.43;;;1.80;;
22030;SDS011;11179;52.106;21.024;2022-08-11T14:57:40;5.03;;;1.80;;
22030;SDS011;11179;52.106;21.024;2022-08-11T15:00:07;4.40;;;2.10;;
22030;SDS011;11179;52.106;21.024;2022-08-11T15:02:37;7.10;;;1.63;;
22030;SDS011;11179;52.106;21.024;2022-08-11T15:05:22;17.70;;;1.77;;
22030;SDS011;11179;52.106;21.024;2022-08-11T15:07:48;4.43;;;1.60;;
22030;SDS011;11179;52.106;21.024;2022-08-11T15:10:16;6.53;;;1.53;;
22030;SDS011;11179;52.106;21.024;2022-08-11T15:12:43;10.63;;;1.70;;
22030;SDS011;11179;52.106;21.024;2022-08-11T15:15:10;7.90;;;1.80;;
22030;SDS011;11179;52.106;21.024;2022-08-11T15:17:56;4.50;;;1.67;;
22030;SDS011;11179;52.106;21.024;2022-08-11T15:20:24;7.90;;;1.80;;
22030;SDS011;11179;52.106;21.024;2022-08-11T15:23:09;6.00;;;1.67;;
22030;SDS011;11179;52.106;21.024;2022-08-11T15:25:57;4.47;;;1.40;;
22030;SDS011;11179;52.106;21.024;2022-08-11T15:28:25;4.50;;;1.67;;
22030;SDS011;11179;52.106;21.024;2022-08-11T15:31:12;7.47;;;2.00;;
22030;SDS011;11179;52.106;21.024;2022-08-11T15:33:56;5.90;;;2.37;;
22030;SDS011;11179;52.106;21.024;2022-08-11T15:36:46;10.80;;;1.87;;
22030;SDS011;11179;52.106;21.024;2022-08-11T15:39:33;7.37;;;1.60;;
22030;SDS011;11179;52.106;21.024;2022-08-11T15:42:03;4.83;;;2.30;;
22030;SDS011;11179;52.106;21.024;2022-08-11T15:44:55;4.63;;;1.67;;
22030;SDS011;11179;52.106;21.024;2022-08-11T15:47:45;6.23;;;1.60;;
22030;SDS011;11179;52.106;21.024;2022-08-11T15:50:21;4.47;;;1.50;;
22030;SDS011;11179;52.106;21.024;2022-08-11T15:52:52;4.40;;;1.60;;
22030;SDS011;11179;52.106;21.024;2022-08-11T15:55:23;4.93;;;1.80;;
22030;SDS011;11179;52.106;21.024;2022-08-11T15:57:49;7.60;;;1.80;;
22030;SDS011;11179;52.106;21.024;2022-08-11T16:00:36;6.73;;;1.93;;
22030;SDS011;11179;52.106;21.024;2022-08-11T16:03:21;5.07;;;1.63;;
22030;SDS011;11179;52.106;21.024;2022-08-11T16:06:24;8.47;;;1.53;;
22030;SDS011;11179;52.106;21.024;2022-08-11T16:08:51;9.87;;;1.80;;
22030;SDS011;11179;52.106;21.024;2022-08-11T16:11:20;7.27;;;2.03;;
22030;SDS011;11179;52.106;21.024;2022-08-11T16:13:46;5.63;;;2.13;;
22030;SDS011;11179;52.106;21.024;2022-08-11T16:16:32;6.17;;;2.30;;
22030;SDS011;11179;52.106;21.024;2022-08-11T16:18:58;15.30;;;2.20;;
22030;SDS011;11179;52.106;21.024;2022-08-11T16:21:31;5.13;;;1.97;;
22030;SDS011;11179;52.106;21.024;2022-08-11T16:23:58;5.63;;;2.03;;
22030;SDS011;11179;52.106;21.024;2022-08-11T16:26:25;5.13;;;2.00;;
22030;SDS011;11179;52.106;21.024;2022-08-11T16:28:54;4.77;;;1.77;;
22030;SDS011;11179;52.106;21.024;2022-08-11T16:31:21;5.10;;;1.87;;
22030;SDS011;11179;52.106;21.024;2022-08-11T16:33:49;5.17;;;1.67;;
22030;SDS011;11179;52.106;21.024;2022-08-11T16:36:16;11.83;;;1.90;;
22030;SDS011;11179;52.106;21.024;2022-08-11T16:39:02;4.90;;;2.17;;
22030;SDS011;11179;52.106;21.024;2022-08-11T16:41:30;5.27;;;1.90;;
22030;SDS011;11179;52.106;21.024;2022-08-11T16:44:16;5.90;;;1.70;;
22030;SDS011;11179;52.106;21.024;2022-08-11T16:47:01;8.57;;;2.30;;
22030;SDS011;11179;52.106;21.024;2022-08-11T16:49:34;5.83;;;1.90;;
22030;SDS011;11179;52.106;21.024;2022-08-11T16:52:04;6.77;;;1.87;;
22030;SDS011;11179;52.106;21.024;2022-08-11T16:54:34;3.90;;;1.50;;
22030;SDS011;11179;52.106;21.024;2022-08-11T16:57:22;6.53;;;1.80;;
22030;SDS011;11179;52.106;21.024;2022-08-11T17:00:07;9.23;;;2.40;;
22030;SDS011;11179;52.106;21.024;2022-08-11T17:02:38;8.00;;;1.90;;
22030;SDS011;11179;52.106;21.024;2022-08-11T17:05:44;4.90;;;1.67;;
22030;SDS011;11179;52.106;21.024;2022-08-11T17:08:35;6.07;;;1.80;;
22030;SDS011;11179;52.106;21.024;2022-08-11T17:11:25;4.47;;;1.50;;
22030;SDS011;11179;52.106;21.024;2022-08-11T17:14:24;5.40;;;1.83;;
22030;SDS011;11179;52.106;21.024;2022-08-11T17:16:56;7.57;;;2.10;;
22030;SDS011;11179;52.106;21.024;2022-08-11T17:19:25;4.80;;;2.17;;
22030;SDS011;11179;52.106;21.024;2022-08-11T17:21:56;5.50;;;2.07;;
22030;SDS011;11179;52.106;21.024;2022-08-11T17:24:40;9.80;;;1.90;;
22030;SDS011;11179;52.106;21.024;2022-08-11T17:27:09;6.43;;;2.00;;
22030;SDS011;11179;52.106;21.024;2022-08-11T17:29:41;4.10;;;1.90;;
22030;SDS011;11179;52.106;21.024;2022-08-11T17:32:17;4.77;;;1.97;;
22030;SDS011;11179;52.106;21.024;2022-08-11T17:35:25;4.22;;;1.70;;
22030;SDS011;11179;52.106;21.024;2022-08-11T17:40:42;5.20;;;2.17;;
22030;SDS011;11179;52.106;21.024;2022-08-11T17:43:29;6.60;;;1.87;;
22030;SDS011;11179;52.106;21.024;2022-08-11T17:46:14;4.70;;;1.70;;
22030;SDS011;11179;52.106;21.024;2022-08-11T17:48:58;6.93;;;2.00;;
22030;SDS011;11179;52.106;21.024;2022-08-11T17:51:25;6.50;;;1.93;;
22030;SDS011;11179;52.106;21.024;2022-08-11T17:54:10;6.23;;;1.77;;
22030;SDS011;11179;52.106;21.024;2022-08-11T17:56:55;5.20;;;2.10;;
22030;SDS011;11179;52.106;21.024;2022-08-11T17:59:41;5.27;;;1.57;;
22030;SDS011;11179;52.106;21.024;2022-08-11T18:02:38;19.43;;;2.90;;
22030;SDS011;11179;52.106;21.024;2022-08-11T18:05:32;13.77;;;2.53;;
22030;SDS011;11179;52.106;21.024;2022-08-11T18:08:00;7.73;;;2.20;;
22030;SDS011;11179;52.106;21.024;2022-08-11T18:10:47;6.60;;;2.37;;
22030;SDS011;11179;52.106;21.024;2022-08-11T18:13:35;6.27;;;2.40;;
22030;SDS011;11179;52.106;21.024;2022-08-11T18:16:20;7.73;;;3.00;;
22030;SDS011;11179;52.106;21.024;2022-08-11T18:19:05;5.97;;;2.57;;
22030;SDS011;11179;52.106;21.024;2022-08-11T18:21:49;11.10;;;3.50;;
22030;SDS011;11179;52.106;21.024;2022-08-11T18:24:36;8.57;;;3.13;;
22030;SDS011;11179;52.106;21.024;2022-08-11T18:27:23;11.17;;;4.20;;
22030;SDS011;11179;52.106;21.024;2022-08-11T18:30:10;9.10;;;3.80;;
22030;SDS011;11179;52.106;21.024;2022-08-11T18:32:55;11.20;;;3.70;;
22030;SDS011;11179;52.106;21.024;2022-08-11T18:35:43;9.00;;;3.67;;
22030;SDS011;11179;52.106;21.024;2022-08-11T18:38:35;6.13;;;3.30;;
22030;SDS011;11179;52.106;21.024;2022-08-11T18:41:21;9.30;;;3.30;;
22030;SDS011;11179;52.106;21.024;2022-08-11T18:44:08;10.97;;;3.60;;
22030;SDS011;11179;52.106;21.024;2022-08-11T18:46:55;8.70;;;3.10;;
22030;SDS011;11179;52.106;21.024;2022-08-11T18:49:42;11.80;;;4.10;;
22030;SDS011;11179;52.106;21.024;2022-08-11T18:52:28;9.07;;;3.97;;
22030;SDS011;11179;52.106;21.024;2022-08-11T18:55:15;17.70;;;5.10;;
22030;SDS011;11179;52.106;21.024;2022-08-11T18:58:03;14.83;;;3.90;;
22030;SDS011;11179;52.106;21.024;2022-08-11T19:00:50;12.73;;;4.10;;
22030;SDS011;11179;52.106;21.024;2022-08-11T19:03:39;9.40;;;4.17;;
22030;SDS011;11179;52.106;21.024;2022-08-11T19:06:24;8.43;;;4.23;;
22030;SDS011;11179;52.106;21.024;2022-08-11T19:09:11;11.87;;;4.60;;
22030;SDS011;11179;52.106;21.024;2022-08-11T19:11:56;9.77;;;5.10;;
22030;SDS011;11179;52.106;21.024;2022-08-11T19:14:44;10.53;;;5.00;;
22030;SDS011;11179;52.106;21.024;2022-08-11T19:17:33;8.27;;;4.57;;